sensor_id;sensor_type;location;lat;lon;timestamp;pressure;altitude;pressure_sealevel;temperature;humidity
69221;BME280;56331;51.992;20.910;2023-05-24T00:01:17;99812.77;;;24.22;43.65
69221;BME280;56331;51.992;20.910;2023-05-24T00:03:52;99808.00;;;24.22;43.63
69221;BME280;56331;51.992;20.910;2023-05-24T00:06:18;99807.76;;;24.21;43.64
69221;BME280;56331;51.992;20.910;2023-05-24T00:08:45;99807.76;;;24.21;43.63
69221;BME280;56331;51.992;20.910;2023-05-24T00:11:12;99808.59;;;24.22;43.60
69221;BME280;56331;51.992;20.910;2023-05-24T00:13:38;99809.16;;;24.21;43.62
69221;BME280;56331;51.992;20.910;2023-05-24T00:16:04;99810.55;;;24.21;43.63
69221;BME280;56331;51.992;20.910;2023-05-24T00:18:30;99805.81;;;24.22;43.58
69221;BME280;56331;51.992;20.910;2023-05-24T00:20:56;99802.79;;;24.21;43.56
69221;BME280;56331;51.992;20.910;2023-05-24T00:23:23;99801.04;;;24.22;43.56
69221;BME280;56331;51.992;20.910;2023-05-24T00:25:50;99803.59;;;24.21;43.59
69221;BME280;56331;51.992;20.910;2023-05-24T00:28:17;99804.98;;;24.21;43.59
69221;BME280;56331;51.992;20.910;2023-05-24T00:30:43;99804.98;;;24.21;43.58
69221;BME280;56331;51.992;20.910;2023-05-24T00:33:09;99797.02;;;24.20;43.55
69221;BME280;56331;51.992;20.910;2023-05-24T00:35:35;99798.61;;;24.21;43.57
69221;BME280;56331;51.992;20.910;2023-05-24T00:38:01;99798.61;;;24.21;43.58
69221;BME280;56331;51.992;20.910;2023-05-24T00:40:27;99797.81;;;24.20;43.57
69221;BME280;56331;51.992;20.910;2023-05-24T00:42:53;99797.02;;;24.20;43.60
69221;BME280;56331;51.992;20.910;2023-05-24T00:45:19;99791.45;;;24.20;43.57
69221;BME280;56331;51.992;20.910;2023-05-24T00:47:46;99794.23;;;24.20;43.61
69221;BME280;56331;51.992;20.910;2023-05-24T00:50:12;99794.23;;;24.20;43.57
69221;BME280;56331;51.992;20.910;2023-05-24T00:52:43;99793.20;;;24.18;43.60
69221;BME280;56331;51.992;20.910;2023-05-24T00:55:07;99788.23;;;24.18;43.60
69221;BME280;56331;51.992;20.910;2023-05-24T00:57:38;99793.00;;;24.17;43.62
69221;BME280;56331;51.992;20.910;2023-05-24T01:00:02;99787.42;;;24.17;43.63
69221;BME280;56331;51.992;20.910;2023-05-24T01:02:30;99788.81;;;24.17;43.67
69221;BME280;56331;51.992;20.910;2023-05-24T01:05:01;99791.01;;;24.18;43.58
69221;BME280;56331;51.992;20.910;2023-05-24T01:10:19;99790.41;;;24.18;43.33
69221;BME280;56331;51.992;20.910;2023-05-24T01:12:52;99789.82;;;24.19;43.27
69221;BME280;56331;51.992;20.910;2023-05-24T01:18:04;99786.24;;;24.18;43.10
69221;BME280;56331;51.992;20.910;2023-05-24T01:20:31;99782.30;;;24.19;43.05
69221;BME280;56331;51.992;20.910;2023-05-24T01:28:09;99788.43;;;24.19;42.88
69221;BME280;56331;51.992;20.910;2023-05-24T01:30:37;99789.82;;;24.19;42.84
69221;BME280;56331;51.992;20.910;2023-05-24T01:33:04;99787.63;;;24.18;42.81
69221;BME280;56331;51.992;20.910;2023-05-24T01:35:30;99790.41;;;24.18;42.81
69221;BME280;56331;51.992;20.910;2023-05-24T01:37:56;99787.42;;;24.17;42.81
69221;BME280;56331;51.992;20.910;2023-05-24T01:40:22;99795.78;;;24.17;42.82
69221;BME280;56331;51.992;20.910;2023-05-24T01:42:54;99792.41;;;24.18;42.74
69221;BME280;56331;51.992;20.910;2023-05-24T01:50:33;99791.61;;;24.17;42.69
69221;BME280;56331;51.992;20.910;2023-05-24T01:53:03;99785.80;;;24.16;42.59
69221;BME280;56331;51.992;20.910;2023-05-24T01:55:27;99794.39;;;24.17;42.54
69221;BME280;56331;51.992;20.910;2023-05-24T01:57:55;99792.20;;;24.17;42.51
69221;BME280;56331;51.992;20.910;2023-05-24T02:00:22;99788.59;;;24.16;42.51
69221;BME280;56331;51.992;20.910;2023-05-24T02:02:52;99789.98;;;24.16;42.49
69221;BME280;56331;51.992;20.910;2023-05-24T02:05:17;99789.17;;;24.16;42.49
69221;BME280;56331;51.992;20.910;2023-05-24T02:07:46;99795.78;;;24.17;42.46
69221;BME280;56331;51.992;20.910;2023-05-24T02:10:13;99791.16;;;24.15;42.46
69221;BME280;56331;51.992;20.910;2023-05-24T02:12:39;99801.70;;;24.16;42.43
69221;BME280;56331;51.992;20.910;2023-05-24T02:15:06;99797.53;;;24.16;42.39
69221;BME280;56331;51.992;20.910;2023-05-24T02:17:32;99796.14;;;24.16;42.34
69221;BME280;56331;51.992;20.910;2023-05-24T02:19:58;99796.14;;;24.16;42.33
69221;BME280;56331;51.992;20.910;2023-05-24T02:22:25;99801.49;;;24.15;42.36
69221;BME280;56331;51.992;20.910;2023-05-24T02:24:51;99803.09;;;24.16;42.29
69221;BME280;56331;51.992;20.910;2023-05-24T02:27:18;99794.54;;;24.15;42.25
69221;BME280;56331;51.992;20.910;2023-05-24T02:29:44;99798.12;;;24.15;42.13
69221;BME280;56331;51.992;20.910;2023-05-24T02:32:10;99800.91;;;24.15;42.05
69221;BME280;56331;51.992;20.910;2023-05-24T02:34:36;99797.91;;;24.14;42.02
69221;BME280;56331;51.992;20.910;2023-05-24T02:37:02;99798.12;;;24.15;42.07
69221;BME280;56331;51.992;20.910;2023-05-24T02:39:30;99793.95;;;24.15;42.01
69221;BME280;56331;51.992;20.910;2023-05-24T02:41:57;99797.68;;;24.13;41.91
69221;BME280;56331;51.992;20.910;2023-05-24T02:44:23;99803.48;;;24.14;41.82
69221;BME280;56331;51.992;20.910;2023-05-24T02:46:49;99801.85;;;24.13;41.81
69221;BME280;56331;51.992;20.910;2023-05-24T02:49:17;99810.20;;;24.13;41.76
69221;BME280;56331;51.992;20.910;2023-05-24T02:51:43;99803.63;;;24.12;41.66
69221;BME280;56331;51.992;20.910;2023-05-24T02:54:09;99804.20;;;24.11;41.62
69221;BME280;56331;51.992;20.910;2023-05-24T02:56:35;99809.76;;;24.11;41.62
69221;BME280;56331;51.992;20.910;2023-05-24T02:59:02;99803.19;;;24.10;41.68
69221;BME280;56331;51.992;20.910;2023-05-24T03:01:28;99805.73;;;24.09;41.68
69221;BME280;56331;51.992;20.910;2023-05-24T03:03:55;99807.12;;;24.09;41.66
69221;BME280;56331;51.992;20.910;2023-05-24T03:06:21;99805.17;;;24.09;41.77
69221;BME280;56331;51.992;20.910;2023-05-24T03:11:58;99806.72;;;24.07;41.90
69221;BME280;56331;51.992;20.910;2023-05-24T03:14:25;99801.71;;;24.06;41.90
69221;BME280;56331;51.992;20.910;2023-05-24T03:16:51;99806.72;;;24.07;41.92
69221;BME280;56331;51.992;20.910;2023-05-24T03:19:18;99801.71;;;24.06;41.95
69221;BME280;56331;51.992;20.910;2023-05-24T03:21:44;99812.28;;;24.07;41.91
69221;BME280;56331;51.992;20.910;2023-05-24T03:24:10;99810.89;;;24.07;41.96
69221;BME280;56331;51.992;20.910;2023-05-24T03:26:39;99817.84;;;24.07;41.95
69221;BME280;56331;51.992;20.910;2023-05-24T03:29:05;99817.25;;;24.07;41.95
69221;BME280;56331;51.992;20.910;2023-05-24T03:31:31;99822.58;;;24.06;41.96
69221;BME280;56331;51.992;20.910;2023-05-24T03:33:58;99819.23;;;24.07;41.97
69221;BME280;56331;51.992;20.910;2023-05-24T03:36:24;99820.98;;;24.05;41.97
69221;BME280;56331;51.992;20.910;2023-05-24T03:38:51;99822.58;;;24.06;41.97
69221;BME280;56331;51.992;20.910;2023-05-24T03:41:17;99825.95;;;24.06;41.93
69221;BME280;56331;51.992;20.910;2023-05-24T03:43:43;99825.95;;;24.06;41.95
69221;BME280;56331;51.992;20.910;2023-05-24T03:46:10;99837.09;;;24.06;42.00
69221;BME280;56331;51.992;20.910;2023-05-24T03:48:39;99837.68;;;24.05;41.98
69221;BME280;56331;51.992;20.910;2023-05-24T03:51:05;99837.09;;;24.06;42.02
69221;BME280;56331;51.992;20.910;2023-05-24T03:53:31;99836.88;;;24.05;42.01
69221;BME280;56331;51.992;20.910;2023-05-24T03:55:58;99837.47;;;24.04;42.03
69221;BME280;56331;51.992;20.910;2023-05-24T03:58:24;99841.05;;;24.05;42.05
69221;BME280;56331;51.992;20.910;2023-05-24T04:00:50;99848.60;;;24.04;42.06
69221;BME280;56331;51.992;20.910;2023-05-24T04:03:16;99838.63;;;24.03;42.06
69221;BME280;56331;51.992;20.910;2023-05-24T04:05:44;99836.44;;;24.02;42.10
69221;BME280;56331;51.992;20.910;2023-05-24T04:08:11;99836.44;;;24.02;42.11
69221;BME280;56331;51.992;20.910;2023-05-24T04:10:37;99835.84;;;24.03;42.08
69221;BME280;56331;51.992;20.910;2023-05-24T04:13:03;99837.23;;;24.03;42.08
69221;BME280;56331;51.992;20.910;2023-05-24T04:15:29;99833.66;;;24.02;42.08
69221;BME280;56331;51.992;20.910;2023-05-24T04:17:56;99837.23;;;24.03;42.11
69221;BME280;56331;51.992;20.910;2023-05-24T04:20:24;99839.22;;;24.02;42.14
69221;BME280;56331;51.992;20.910;2023-05-24T04:22:52;99848.75;;;24.01;42.14
69221;BME280;56331;51.992;20.910;2023-05-24T04:25:19;99848.75;;;24.01;42.18
69221;BME280;56331;51.992;20.910;2023-05-24T04:27:45;99858.48;;;24.01;42.20
69221;BME280;56331;51.992;20.910;2023-05-24T04:30:13;99862.07;;;24.02;42.20
69221;BME280;56331;51.992;20.910;2023-05-24T04:32:44;99858.70;;;24.02;42.18
69221;BME280;56331;51.992;20.910;2023-05-24T04:35:10;99860.09;;;24.02;42.21
69221;BME280;56331;51.992;20.910;2023-05-24T04:37:36;99862.42;;;24.00;42.20
69221;BME280;56331;51.992;20.910;2023-05-24T04:40:02;99866.84;;;24.01;42.25
69221;BME280;56331;51.992;20.910;2023-05-24T04:42:31;99868.44;;;24.02;42.26
69221;BME280;56331;51.992;20.910;2023-05-24T04:44:57;99871.57;;;24.01;42.28
69221;BME280;56331;51.992;20.910;2023-05-24T04:47:24;99884.33;;;24.02;42.28
69221;BME280;56331;51.992;20.910;2023-05-24T04:49:50;99882.34;;;24.02;42.31
69221;BME280;56331;51.992;20.910;2023-05-24T04:52:17;99882.14;;;24.01;42.32
69221;BME280;56331;51.992;20.910;2023-05-24T04:54:43;99886.87;;;24.01;42.35
69221;BME280;56331;51.992;20.910;2023-05-24T04:57:09;99891.64;;;24.00;42.35
69221;BME280;56331;51.992;20.910;2023-05-24T04:59:35;99888.86;;;24.00;42.34
69221;BME280;56331;51.992;20.910;2023-05-24T05:02:01;99889.45;;;24.00;42.37
69221;BME280;56331;51.992;20.910;2023-05-24T05:04:31;99892.23;;;24.00;42.50
69221;BME280;56331;51.992;20.910;2023-05-24T05:06:57;99888.06;;;24.00;42.24
69221;BME280;56331;51.992;20.910;2023-05-24T05:09:24;99896.41;;;24.00;42.09
69221;BME280;56331;51.992;20.910;2023-05-24T05:11:50;99893.41;;;23.99;41.82
69221;BME280;56331;51.992;20.910;2023-05-24T05:14:17;99898.83;;;24.01;41.93
69221;BME280;56331;51.992;20.910;2023-05-24T05:16:44;99893.03;;;24.00;41.76
69221;BME280;56331;51.992;20.910;2023-05-24T05:19:10;99893.03;;;24.00;41.76
69221;BME280;56331;51.992;20.910;2023-05-24T05:21:37;99897.80;;;24.00;41.80
69221;BME280;56331;51.992;20.910;2023-05-24T05:24:04;99894.42;;;24.00;41.57
69221;BME280;56331;51.992;20.910;2023-05-24T05:26:30;99892.83;;;23.99;41.62
69221;BME280;56331;51.992;20.910;2023-05-24T05:28:56;99899.19;;;24.00;41.67
69221;BME280;56331;51.992;20.910;2023-05-24T05:31:23;99896.61;;;24.01;41.72
69221;BME280;56331;51.992;20.910;2023-05-24T05:33:49;99901.37;;;24.00;41.67
69221;BME280;56331;51.992;20.910;2023-05-24T05:36:15;99895.02;;;24.00;41.83
69221;BME280;56331;51.992;20.910;2023-05-24T05:38:41;99898.98;;;23.99;41.86
69221;BME280;56331;51.992;20.910;2023-05-24T05:41:09;99901.17;;;23.99;41.87
69221;BME280;56331;51.992;20.910;2023-05-24T05:43:37;99901.97;;;24.00;41.89
69221;BME280;56331;51.992;20.910;2023-05-24T05:46:03;99904.75;;;24.00;41.92
69221;BME280;56331;51.992;20.910;2023-05-24T05:48:30;99907.53;;;24.00;42.05
69221;BME280;56331;51.992;20.910;2023-05-24T05:50:56;99910.31;;;24.00;41.96
69221;BME280;56331;51.992;20.910;2023-05-24T05:53:22;99914.48;;;24.00;41.95
69221;BME280;56331;51.992;20.910;2023-05-24T05:55:48;99912.30;;;23.99;41.90
69221;BME280;56331;51.992;20.910;2023-05-24T05:58:14;99913.69;;;23.99;41.89
69221;BME280;56331;51.992;20.910;2023-05-24T06:00:40;99914.88;;;23.98;41.90
69221;BME280;56331;51.992;20.910;2023-05-24T06:03:06;99921.00;;;23.98;41.80
69221;BME280;56331;51.992;20.910;2023-05-24T06:05:32;99925.17;;;23.98;41.73
69221;BME280;56331;51.992;20.910;2023-05-24T06:07:59;99928.55;;;23.97;42.04
69221;BME280;56331;51.992;20.910;2023-05-24T06:10:25;99931.56;;;23.98;42.84
69221;BME280;56331;51.992;20.910;2023-05-24T06:12:52;99931.56;;;23.98;42.86
69221;BME280;56331;51.992;20.910;2023-05-24T06:15:18;99937.13;;;23.98;43.44
69221;BME280;56331;51.992;20.910;2023-05-24T06:17:46;99945.69;;;23.99;44.02
69221;BME280;56331;51.992;20.910;2023-05-24T06:20:12;99945.03;;;23.96;44.18
69221;BME280;56331;51.992;20.910;2023-05-24T06:22:40;99945.03;;;23.96;44.19
69221;BME280;56331;51.992;20.910;2023-05-24T06:25:07;99953.14;;;23.95;44.37
69221;BME280;56331;51.992;20.910;2023-05-24T06:27:33;99951.98;;;23.96;44.33
69221;BME280;56331;51.992;20.910;2023-05-24T06:30:02;99954.53;;;23.95;44.32
69221;BME280;56331;51.992;20.910;2023-05-24T06:32:28;99961.94;;;23.97;44.02
69221;BME280;56331;51.992;20.910;2023-05-24T06:34:54;99961.34;;;23.98;43.64
69221;BME280;56331;51.992;20.910;2023-05-24T06:37:20;99966.55;;;23.99;43.33
69221;BME280;56331;51.992;20.910;2023-05-24T06:39:48;99969.34;;;23.99;43.05
69221;BME280;56331;51.992;20.910;2023-05-24T06:42:14;99974.90;;;23.99;42.96
69221;BME280;56331;51.992;20.910;2023-05-24T06:44:41;99976.50;;;24.00;42.81
69221;BME280;56331;51.992;20.910;2023-05-24T06:47:07;99977.69;;;23.99;42.97
69221;BME280;56331;51.992;20.910;2023-05-24T06:49:33;99982.66;;;24.00;43.29
69221;BME280;56331;51.992;20.910;2023-05-24T06:52:00;99991.80;;;24.00;43.09
69221;BME280;56331;51.992;20.910;2023-05-24T06:54:26;99989.61;;;24.00;43.01
69221;BME280;56331;51.992;20.910;2023-05-24T06:56:52;99991.95;;;23.98;43.20
69221;BME280;56331;51.992;20.910;2023-05-24T06:59:19;99999.35;;;24.00;43.63
69221;BME280;56331;51.992;20.910;2023-05-24T07:01:45;99986.99;;;24.07;43.46
69221;BME280;56331;51.992;20.910;2023-05-24T07:04:11;99986.25;;;24.10;43.36
69221;BME280;56331;51.992;20.910;2023-05-24T07:06:38;99988.45;;;24.11;43.36
69221;BME280;56331;51.992;20.910;2023-05-24T07:09:04;100001.87;;;24.15;43.23
69221;BME280;56331;51.992;20.910;2023-05-24T07:11:30;99987.95;;;24.15;43.24
69221;BME280;56331;51.992;20.910;2023-05-24T07:13:57;99996.51;;;24.16;43.24
69221;BME280;56331;51.992;20.910;2023-05-24T07:16:23;99999.53;;;24.17;43.22
69221;BME280;56331;51.992;20.910;2023-05-24T07:18:49;99998.14;;;24.17;43.22
69221;BME280;56331;51.992;20.910;2023-05-24T07:21:15;100001.72;;;24.17;43.04
69221;BME280;56331;51.992;20.910;2023-05-24T07:23:41;100002.52;;;24.18;42.95
69221;BME280;56331;51.992;20.910;2023-05-24T07:26:07;100008.09;;;24.18;42.87
69221;BME280;56331;51.992;20.910;2023-05-24T07:28:38;100005.66;;;24.16;42.75
69221;BME280;56331;51.992;20.910;2023-05-24T07:31:05;100013.80;;;24.15;42.57
69221;BME280;56331;51.992;20.910;2023-05-24T07:33:33;100022.95;;;24.16;42.47
69221;BME280;56331;51.992;20.910;2023-05-24T07:36:01;100032.48;;;24.15;42.53
69221;BME280;56331;51.992;20.910;2023-05-24T07:38:27;100024.72;;;24.14;42.69
69221;BME280;56331;51.992;20.910;2023-05-24T07:40:54;100038.25;;;24.16;42.77
69221;BME280;56331;51.992;20.910;2023-05-24T07:43:20;100029.25;;;24.13;43.02
69221;BME280;56331;51.992;20.910;2023-05-24T07:45:46;100032.48;;;24.15;43.21
69221;BME280;56331;51.992;20.910;2023-05-24T07:48:12;100034.81;;;24.13;43.17
69221;BME280;56331;51.992;20.910;2023-05-24T07:50:38;100040.97;;;24.12;43.36
69221;BME280;56331;51.992;20.910;2023-05-24T07:53:04;100041.56;;;24.12;43.31
69221;BME280;56331;51.992;20.910;2023-05-24T07:55:31;100045.14;;;24.12;43.28
69221;BME280;56331;51.992;20.910;2023-05-24T07:57:58;100047.13;;;24.12;43.34
69221;BME280;56331;51.992;20.910;2023-05-24T08:00:24;100058.02;;;24.11;43.44
69221;BME280;56331;51.992;20.910;2023-05-24T08:02:50;100057.43;;;24.11;43.72
69221;BME280;56331;51.992;20.910;2023-05-24T08:05:17;100058.40;;;24.09;44.02
69221;BME280;56331;51.992;20.910;2023-05-24T08:07:43;100063.97;;;24.09;44.04
69221;BME280;56331;51.992;20.910;2023-05-24T08:10:10;100064.31;;;24.08;44.23
69221;BME280;56331;51.992;20.910;2023-05-24T08:12:40;100065.70;;;24.08;44.31
69221;BME280;56331;51.992;20.910;2023-05-24T08:15:06;100072.31;;;24.09;44.35
69221;BME280;56331;51.992;20.910;2023-05-24T08:17:32;100071.06;;;24.07;44.56
69221;BME280;56331;51.992;20.910;2023-05-24T08:19:59;100074.05;;;24.08;44.68
69221;BME280;56331;51.992;20.910;2023-05-24T08:22:25;100075.00;;;24.06;44.83
69221;BME280;56331;51.992;20.910;2023-05-24T08:24:51;100072.80;;;24.05;44.85
69221;BME280;56331;51.992;20.910;2023-05-24T08:27:17;100076.98;;;24.05;44.96
69221;BME280;56331;51.992;20.910;2023-05-24T08:29:44;100072.21;;;24.06;44.95
69221;BME280;56331;51.992;20.910;2023-05-24T08:32:10;100080.56;;;24.06;45.35
69221;BME280;56331;51.992;20.910;2023-05-24T08:34:36;100082.55;;;24.05;46.21
69221;BME280;56331;51.992;20.910;2023-05-24T08:37:03;100082.96;;;23.97;47.86
69221;BME280;56331;51.992;20.910;2023-05-24T08:39:29;100094.75;;;23.91;48.42
69221;BME280;56331;51.992;20.910;2023-05-24T08:41:56;100092.10;;;23.88;48.36
69221;BME280;56331;51.992;20.910;2023-05-24T08:44:22;100092.98;;;23.92;48.34
69221;BME280;56331;51.992;20.910;2023-05-24T08:46:49;100088.91;;;23.96;48.25
69221;BME280;56331;51.992;20.910;2023-05-24T08:49:16;100090.72;;;23.98;48.17
69221;BME280;56331;51.992;20.910;2023-05-24T08:51:43;100093.74;;;23.99;47.83
69221;BME280;56331;51.992;20.910;2023-05-24T08:54:09;100096.52;;;23.99;47.76
69221;BME280;56331;51.992;20.910;2023-05-24T08:56:37;100093.36;;;24.00;47.67
69221;BME280;56331;51.992;20.910;2023-05-24T08:59:05;100097.98;;;24.02;47.83
69221;BME280;56331;51.992;20.910;2023-05-24T09:01:31;100100.31;;;24.00;48.60
69221;BME280;56331;51.992;20.910;2023-05-24T09:03:58;100101.50;;;23.99;48.63
69221;BME280;56331;51.992;20.910;2023-05-24T09:06:24;100098.72;;;23.99;48.92
69221;BME280;56331;51.992;20.910;2023-05-24T09:08:51;100106.98;;;23.96;49.08
69221;BME280;56331;51.992;20.910;2023-05-24T09:11:18;100106.16;;;23.95;48.78
69221;BME280;56331;51.992;20.910;2023-05-24T09:13:47;100116.03;;;23.93;49.16
69221;BME280;56331;51.992;20.910;2023-05-24T09:16:14;100109.32;;;23.94;48.68
69221;BME280;56331;51.992;20.910;2023-05-24T09:18:40;100114.75;;;23.96;48.50
69221;BME280;56331;51.992;20.910;2023-05-24T09:21:09;100119.80;;;24.00;47.97
69221;BME280;56331;51.992;20.910;2023-05-24T09:23:36;100116.66;;;24.02;47.54
69221;BME280;56331;51.992;20.910;2023-05-24T09:26:09;100117.81;;;24.01;47.15
69221;BME280;56331;51.992;20.910;2023-05-24T09:28:36;100124.77;;;24.01;46.78
69221;BME280;56331;51.992;20.910;2023-05-24T09:31:03;100124.63;;;24.03;46.41
69221;BME280;56331;51.992;20.910;2023-05-24T09:33:29;100125.22;;;24.03;46.03
69221;BME280;56331;51.992;20.910;2023-05-24T09:35:59;100127.41;;;24.03;45.79
69221;BME280;56331;51.992;20.910;2023-05-24T09:38:26;100128.80;;;24.03;45.47
69221;BME280;56331;51.992;20.910;2023-05-24T09:41:02;100128.25;;;24.04;45.20
69221;BME280;56331;51.992;20.910;2023-05-24T09:43:30;100131.59;;;24.03;45.01
69221;BME280;56331;51.992;20.910;2023-05-24T09:45:57;100127.41;;;24.03;44.81
69221;BME280;56331;51.992;20.910;2023-05-24T09:48:25;100131.59;;;24.03;44.70
69221;BME280;56331;51.992;20.910;2023-05-24T09:51:06;100137.39;;;24.05;44.55
69221;BME280;56331;51.992;20.910;2023-05-24T09:53:36;100137.39;;;24.05;44.47
69221;BME280;56331;51.992;20.910;2023-05-24T09:56:02;100134.38;;;24.03;44.32
69221;BME280;56331;51.992;20.910;2023-05-24T09:58:29;100134.61;;;24.05;44.07
69221;BME280;56331;51.992;20.910;2023-05-24T10:01:06;100137.74;;;24.03;44.03
69221;BME280;56331;51.992;20.910;2023-05-24T10:03:30;100136.94;;;24.02;43.87
69221;BME280;56331;51.992;20.910;2023-05-24T10:05:56;100136.00;;;24.05;43.87
69221;BME280;56331;51.992;20.910;2023-05-24T10:08:23;100136.94;;;24.02;43.92
69221;BME280;56331;51.992;20.910;2023-05-24T10:10:49;100139.94;;;24.03;43.90
69221;BME280;56331;51.992;20.910;2023-05-24T10:13:15;100139.38;;;24.04;44.04
69221;BME280;56331;51.992;20.910;2023-05-24T10:15:43;100139.14;;;24.03;44.02
69221;BME280;56331;51.992;20.910;2023-05-24T10:18:09;100142.37;;;24.05;43.99
69221;BME280;56331;51.992;20.910;2023-05-24T10:20:36;100145.61;;;24.07;43.99
69221;BME280;56331;51.992;20.910;2023-05-24T10:23:03;100149.19;;;24.08;43.99
69221;BME280;56331;51.992;20.910;2023-05-24T10:25:32;100147.80;;;24.08;43.98
69221;BME280;56331;51.992;20.910;2023-05-24T10:28:02;100145.02;;;24.08;43.94
69221;BME280;56331;51.992;20.910;2023-05-24T10:33:14;100142.83;;;24.07;44.00
69221;BME280;56331;51.992;20.910;2023-05-24T10:35:41;100143.41;;;24.07;43.99
69221;BME280;56331;51.992;20.910;2023-05-24T10:38:08;100139.00;;;24.06;43.98
69221;BME280;56331;51.992;20.910;2023-05-24T10:40:39;100147.59;;;24.07;43.97
69221;BME280;56331;51.992;20.910;2023-05-24T10:43:03;100142.69;;;24.10;43.95
69221;BME280;56331;51.992;20.910;2023-05-24T10:45:31;100149.99;;;24.08;43.99
69221;BME280;56331;51.992;20.910;2023-05-24T10:48:46;100145.23;;;24.09;44.00
69221;BME280;56331;51.992;20.910;2023-05-24T10:50:28;100147.45;;;24.09;43.99
69221;BME280;56331;51.992;20.910;2023-05-24T10:53:13;100143.28;;;24.09;44.02
69221;BME280;56331;51.992;20.910;2023-05-24T10:55:56;100147.07;;;24.11;43.95
69221;BME280;56331;51.992;20.910;2023-05-24T11:01:24;100149.85;;;24.11;44.05
69221;BME280;56331;51.992;20.910;2023-05-24T11:03:49;100152.05;;;24.11;44.07
69221;BME280;56331;51.992;20.910;2023-05-24T11:06:20;100152.19;;;24.09;44.03
69221;BME280;56331;51.992;20.910;2023-05-24T11:08:44;100154.03;;;24.11;43.96
69221;BME280;56331;51.992;20.910;2023-05-24T11:11:15;100154.83;;;24.11;44.01
69221;BME280;56331;51.992;20.910;2023-05-24T11:13:39;100157.05;;;24.12;43.90
69221;BME280;56331;51.992;20.910;2023-05-24T11:16:06;100161.23;;;24.12;43.88
69221;BME280;56331;51.992;20.910;2023-05-24T11:18:32;100154.83;;;24.11;43.89
69221;BME280;56331;51.992;20.910;2023-05-24T11:21:00;100160.64;;;24.12;43.82
69221;BME280;56331;51.992;20.910;2023-05-24T11:23:31;100159.84;;;24.12;43.83
69221;BME280;56331;51.992;20.910;2023-05-24T11:25:56;100154.34;;;24.15;43.64
69221;BME280;56331;51.992;20.910;2023-05-24T11:28:23;100152.50;;;24.13;43.65
69221;BME280;56331;51.992;20.910;2023-05-24T11:30:50;100155.08;;;24.12;43.72
69221;BME280;56331;51.992;20.910;2023-05-24T11:35:45;100155.87;;;24.13;43.91
69221;BME280;56331;51.992;20.910;2023-05-24T11:38:12;100155.08;;;24.12;43.97
69221;BME280;56331;51.992;20.910;2023-05-24T11:40:40;100154.83;;;24.11;44.05
69221;BME280;56331;51.992;20.910;2023-05-24T11:43:09;100153.44;;;24.11;44.20
69221;BME280;56331;51.992;20.910;2023-05-24T11:45:35;100148.70;;;24.12;44.22
69221;BME280;56331;51.992;20.910;2023-05-24T11:48:05;100148.70;;;24.12;44.24
69221;BME280;56331;51.992;20.910;2023-05-24T11:50:36;100152.28;;;24.12;44.37
69221;BME280;56331;51.992;20.910;2023-05-24T11:53:01;100146.72;;;24.12;44.49
69221;BME280;56331;51.992;20.910;2023-05-24T11:55:28;100150.17;;;24.15;44.53
69221;BME280;56331;51.992;20.910;2023-05-24T11:57:57;100147.98;;;24.15;44.64
69221;BME280;56331;51.992;20.910;2023-05-24T12:00:23;100143.00;;;24.14;44.56
69221;BME280;56331;51.992;20.910;2023-05-24T12:02:50;100143.80;;;24.15;44.51
69221;BME280;56331;51.992;20.910;2023-05-24T12:05:17;100142.77;;;24.13;44.54
69221;BME280;56331;51.992;20.910;2023-05-24T12:07:44;100143.69;;;24.01;44.89
69221;BME280;56331;51.992;20.910;2023-05-24T12:10:12;100139.80;;;24.06;44.85
69221;BME280;56331;51.992;20.910;2023-05-24T12:12:42;100139.20;;;23.97;45.05
69221;BME280;56331;51.992;20.910;2023-05-24T12:15:09;100138.00;;;23.88;45.33
69221;BME280;56331;51.992;20.910;2023-05-24T12:17:36;100145.23;;;23.83;45.68
69221;BME280;56331;51.992;20.910;2023-05-24T12:20:02;100144.53;;;23.80;45.69
69221;BME280;56331;51.992;20.910;2023-05-24T12:22:31;100143.86;;;23.77;45.71
69221;BME280;56331;51.992;20.910;2023-05-24T12:24:57;100140.28;;;23.76;45.86
69221;BME280;56331;51.992;20.910;2023-05-24T12:27:26;100139.48;;;23.76;45.98
69221;BME280;56331;51.992;20.910;2023-05-24T12:29:53;100133.11;;;23.75;45.99
69221;BME280;56331;51.992;20.910;2023-05-24T12:32:19;100140.62;;;23.75;46.02
69221;BME280;56331;51.992;20.910;2023-05-24T12:34:48;100139.23;;;23.75;46.01
69221;BME280;56331;51.992;20.910;2023-05-24T12:37:14;100133.46;;;23.74;46.09
69221;BME280;56331;51.992;20.910;2023-05-24T12:39:40;100135.20;;;23.72;46.09
69221;BME280;56331;51.992;20.910;2023-05-24T12:42:07;100130.47;;;23.73;46.22
69221;BME280;56331;51.992;20.910;2023-05-24T12:44:36;100140.20;;;23.73;46.28
69221;BME280;56331;51.992;20.910;2023-05-24T12:47:03;100135.78;;;23.72;46.28
69221;BME280;56331;51.992;20.910;2023-05-24T12:49:29;100132.41;;;23.72;46.36
69221;BME280;56331;51.992;20.910;2023-05-24T12:51:56;100133.00;;;23.72;46.33
69221;BME280;56331;51.992;20.910;2023-05-24T12:54:23;100131.61;;;23.72;46.43
69221;BME280;56331;51.992;20.910;2023-05-24T12:56:50;100133.00;;;23.72;46.52
69221;BME280;56331;51.992;20.910;2023-05-24T12:59:17;100135.44;;;23.73;46.54
69221;BME280;56331;51.992;20.910;2023-05-24T13:01:45;100136.59;;;23.72;46.47
69221;BME280;56331;51.992;20.910;2023-05-24T13:04:13;100132.77;;;23.71;46.37
69221;BME280;56331;51.992;20.910;2023-05-24T13:06:39;100128.37;;;23.70;46.43
69221;BME280;56331;51.992;20.910;2023-05-24T13:09:06;100129.52;;;23.69;46.45
69221;BME280;56331;51.992;20.910;2023-05-24T13:11:32;100125.94;;;23.68;46.47